Time;durP1;ratioP1;P1;durP2;ratioP2;P2;SDS_P1;SDS_P2;PMS_P1;PMS_P2;Temp;Humidity;BMP_temperature;BMP_pressure;BME280_temperature;BME280_humidity;BME280_pressure;Samples;Min_cycle;Max_cycle;Signal;HPM_P1;HPM_P2
2023/06/26 00:01:57;;;;;;;6.60;6.00;;;;;;;;;;5065977;28;41450;-31
2023/06/26 00:04:25;;;;;;;6.53;6.00;;;;;;;;;;5064564;28;42791;-31
2023/06/26 00:06:53;;;;;;;6.68;6.07;;;;;;;;;;5066168;28;42923;-31
2023/06/26 00:09:21;;;;;;;6.13;5.63;;;;;;;;;;5065141;28;40248;-32
2023/06/26 00:11:49;;;;;;;6.18;5.68;;;;;;;;;;5064978;28;42637;-33
2023/06/26 00:14:18;;;;;;;6.47;5.95;;;;;;;;;;5065491;28;43448;-34
2023/06/26 00:16:49;;;;;;;6.53;5.93;;;;;;;;;;5066177;28;40440;-33
2023/06/26 00:19:17;;;;;;;6.00;5.47;;;;;;;;;;5061836;28;42641;-31
2023/06/26 00:21:47;;;;;;;6.63;6.03;;;;;;;;;;5063946;28;39772;-30
2023/06/26 00:24:15;;;;;;;6.50;5.90;;;;;;;;;;5065486;28;42925;-33
2023/06/26 00:26:43;;;;;;;6.40;5.90;;;;;;;;;;5065085;28;44078;-31
2023/06/26 00:29:11;;;;;;;6.20;5.70;;;;;;;;;;5065822;28;40865;-30
2023/06/26 00:31:40;;;;;;;6.63;5.93;;;;;;;;;;5064918;28;43688;-33
2023/06/26 00:34:09;;;;;;;6.15;5.65;;;;;;;;;;5080020;28;42096;-30
2023/06/26 00:36:37;;;;;;;6.43;5.82;;;;;;;;;;5065052;28;40900;-30
2023/06/26 00:39:05;;;;;;;6.63;5.97;;;;;;;;;;5065748;28;42693;-30
2023/06/26 00:41:35;;;;;;;6.97;5.75;;;;;;;;;;5065048;28;44085;-32
2023/06/26 00:44:04;;;;;;;6.50;5.80;;;;;;;;;;5063385;28;41653;-32
2023/06/26 00:46:32;;;;;;;6.32;5.80;;;;;;;;;;5063969;28;43865;-37
2023/06/26 00:49:00;;;;;;;6.15;5.65;;;;;;;;;;5063608;28;38947;-32
2023/06/26 00:51:29;;;;;;;7.10;5.95;;;;;;;;;;5064867;28;42887;-30
2023/06/26 00:53:58;;;;;;;6.45;5.85;;;;;;;;;;5096183;28;41754;-30
2023/06/26 00:56:26;;;;;;;6.22;5.70;;;;;;;;;;5064771;28;40167;-30
2023/06/26 00:58:54;;;;;;;7.32;6.63;;;;;;;;;;5063650;28;42573;-32
2023/06/26 01:01:25;;;;;;;6.38;5.88;;;;;;;;;;5067312;28;43467;-23
2023/06/26 01:03:54;;;;;;;6.70;6.00;;;;;;;;;;5066325;28;41757;-22
2023/06/26 01:06:22;;;;;;;6.43;5.82;;;;;;;;;;5066448;28;44667;-22
2023/06/26 01:08:51;;;;;;;6.20;5.70;;;;;;;;;;5068037;28;40381;-22
2023/06/26 01:11:19;;;;;;;6.25;5.72;;;;;;;;;;5067857;28;43771;-22
2023/06/26 01:13:47;;;;;;;6.45;5.85;;;;;;;;;;5066936;28;42754;-22
2023/06/26 01:16:15;;;;;;;6.50;5.90;;;;;;;;;;5067657;28;42236;-22
2023/06/26 01:18:45;;;;;;;6.43;5.85;;;;;;;;;;5066906;28;42582;-22
2023/06/26 01:21:13;;;;;;;7.10;6.50;;;;;;;;;;5068507;28;45117;-22
2023/06/26 01:23:47;;;;;;;6.70;6.10;;;;;;;;;;5067463;28;40176;-22
2023/06/26 01:26:18;;;;;;;6.35;5.75;;;;;;;;;;5065356;28;42849;-22
2023/06/26 01:28:46;;;;;;;6.55;5.95;;;;;;;;;;5082175;28;40809;-21
2023/06/26 01:31:14;;;;;;;6.22;5.72;;;;;;;;;;5066384;28;42603;-22
2023/06/26 01:33:42;;;;;;;6.60;6.05;;;;;;;;;;5068102;28;45203;-22
2023/06/26 01:36:10;;;;;;;6.75;6.15;;;;;;;;;;5067893;28;41094;-22
2023/06/26 01:38:38;;;;;;;6.65;6.05;;;;;;;;;;5067461;28;43113;-22
2023/06/26 01:41:06;;;;;;;6.90;6.30;;;;;;;;;;5066135;28;41810;-22
2023/06/26 01:43:37;;;;;;;6.75;6.00;;;;;;;;;;5064783;28;40880;-23
2023/06/26 01:46:09;;;;;;;6.55;5.95;;;;;;;;;;5066546;28;41421;-22
2023/06/26 01:48:39;;;;;;;6.85;6.15;;;;;;;;;;5067400;28;40632;-23
2023/06/26 01:51:07;;;;;;;7.00;6.35;;;;;;;;;;5065556;28;43255;-22
2023/06/26 01:53:36;;;;;;;6.88;6.25;;;;;;;;;;5066835;28;43585;-22
2023/06/26 01:56:06;;;;;;;7.10;6.50;;;;;;;;;;5065311;28;41220;-22
2023/06/26 01:58:34;;;;;;;6.88;6.28;;;;;;;;;;5066565;28;41435;-23
2023/06/26 02:01:04;;;;;;;7.53;6.82;;;;;;;;;;5065617;28;41959;-22
2023/06/26 02:03:33;;;;;;;7.10;6.40;;;;;;;;;;5063944;28;40435;-22
2023/06/26 02:06:01;;;;;;;7.13;6.53;;;;;;;;;;5065775;28;41400;-22
2023/06/26 02:08:29;;;;;;;7.35;6.65;;;;;;;;;;5060304;28;43296;-23
2023/06/26 02:10:57;;;;;;;7.20;6.53;;;;;;;;;;5065496;28;43631;-22
2023/06/26 02:13:25;;;;;;;7.45;6.75;;;;;;;;;;5064883;28;43006;-24
2023/06/26 02:15:53;;;;;;;7.22;6.63;;;;;;;;;;5065386;28;38793;-24
2023/06/26 02:18:23;;;;;;;7.13;6.43;;;;;;;;;;5064975;28;42270;-24
2023/06/26 02:20:51;;;;;;;6.93;6.30;;;;;;;;;;5067264;28;44000;-24
2023/06/26 02:23:19;;;;;;;8.50;6.90;;;;;;;;;;5065375;28;39515;-24
2023/06/26 02:25:47;;;;;;;6.97;6.28;;;;;;;;;;5066692;28;43797;-24
2023/06/26 02:28:15;;;;;;;7.80;6.70;;;;;;;;;;5064922;28;42785;-24
2023/06/26 02:30:43;;;;;;;7.43;6.72;;;;;;;;;;5066057;28;40736;-24
2023/06/26 02:33:11;;;;;;;6.43;5.82;;;;;;;;;;5066575;28;42868;-24
2023/06/26 02:35:41;;;;;;;7.18;6.57;;;;;;;;;;5066392;28;40052;-24
2023/06/26 02:38:12;;;;;;;7.03;6.43;;;;;;;;;;5064892;28;42573;-24
2023/06/26 02:40:40;;;;;;;7.32;6.63;;;;;;;;;;5063504;28;42215;-24
2023/06/26 02:43:09;;;;;;;7.28;6.57;;;;;;;;;;5065437;28;39715;-24
2023/06/26 02:45:37;;;;;;;6.60;6.10;;;;;;;;;;5064688;28;41519;-24
2023/06/26 02:48:06;;;;;;;7.63;6.82;;;;;;;;;;5066736;28;42818;-24
2023/06/26 02:50:34;;;;;;;7.03;6.32;;;;;;;;;;5081269;28;39503;-23
2023/06/26 02:53:10;;;;;;;7.15;6.45;;;;;;;;;;5064693;28;42271;-23
2023/06/26 02:55:41;;;;;;;7.10;6.50;;;;;;;;;;5064873;28;39810;-23
2023/06/26 02:58:09;;;;;;;7.25;6.50;;;;;;;;;;5065385;28;42624;-24
2023/06/26 03:00:41;;;;;;;6.95;6.13;;;;;;;;;;5057237;28;42170;-24
2023/06/26 03:03:13;;;;;;;6.82;6.22;;;;;;;;;;5051037;28;38941;-23
2023/06/26 03:05:41;;;;;;;7.25;6.60;;;;;;;;;;5064690;28;42145;-24
2023/06/26 03:08:11;;;;;;;7.85;7.05;;;;;;;;;;5063825;28;42939;-24
2023/06/26 03:10:39;;;;;;;7.60;6.88;;;;;;;;;;5064788;28;40806;-23
2023/06/26 03:13:07;;;;;;;7.40;6.80;;;;;;;;;;5064751;28;41198;-24
2023/06/26 03:15:35;;;;;;;7.43;6.72;;;;;;;;;;5063880;28;43024;-23
2023/06/26 03:18:04;;;;;;;6.82;6.22;;;;;;;;;;5064511;28;42050;-23
2023/06/26 03:20:32;;;;;;;7.60;6.90;;;;;;;;;;5063840;28;42113;-23
2023/06/26 03:23:00;;;;;;;7.35;6.65;;;;;;;;;;5063550;28;39422;-24
2023/06/26 03:25:30;;;;;;;7.35;6.65;;;;;;;;;;5064517;28;42269;-23
2023/06/26 03:28:11;;;;;;;6.65;6.05;;;;;;;;;;5063997;28;41887;-24
2023/06/26 03:30:40;;;;;;;6.53;5.95;;;;;;;;;;5064146;28;40013;-23
2023/06/26 03:33:08;;;;;;;6.85;6.07;;;;;;;;;;5064559;28;41576;-23
2023/06/26 03:35:36;;;;;;;6.85;6.20;;;;;;;;;;5063214;28;43118;-23
2023/06/26 03:38:05;;;;;;;6.85;6.15;;;;;;;;;;5065198;28;39147;-23
2023/06/26 03:40:34;;;;;;;6.18;5.68;;;;;;;;;;5063584;28;42415;-23
2023/06/26 03:43:03;;;;;;;6.65;6.05;;;;;;;;;;5065020;28;41379;-23
2023/06/26 03:45:40;;;;;;;6.50;5.90;;;;;;;;;;5063060;28;43311;-24
2023/06/26 03:48:08;;;;;;;6.47;5.88;;;;;;;;;;5064622;28;42122;-24
2023/06/26 03:50:37;;;;;;;6.68;6.00;;;;;;;;;;5063302;28;39094;-24
2023/06/26 03:53:05;;;;;;;7.10;6.40;;;;;;;;;;5066543;28;43607;-24
2023/06/26 03:55:35;;;;;;;6.55;5.95;;;;;;;;;;5063071;28;43148;-24
2023/06/26 03:58:04;;;;;;;7.05;6.05;;;;;;;;;;5063870;28;39185;-24
2023/06/26 04:00:33;;;;;;;5.95;5.43;;;;;;;;;;5063437;28;43105;-24
2023/06/26 04:03:02;;;;;;;6.68;6.07;;;;;;;;;;5063937;28;38729;-24
2023/06/26 04:05:31;;;;;;;5.72;5.22;;;;;;;;;;5063398;28;42245;-24
2023/06/26 04:07:59;;;;;;;6.05;5.47;;;;;;;;;;5063680;28;41998;-24
2023/06/26 04:10:27;;;;;;;6.07;5.45;;;;;;;;;;5062384;28;40104;-24
2023/06/26 04:12:57;;;;;;;6.18;5.57;;;;;;;;;;5064036;28;41613;-24
2023/06/26 04:15:25;;;;;;;6.05;5.43;;;;;;;;;;5064765;28;44426;-24
2023/06/26 04:17:53;;;;;;;5.72;5.13;;;;;;;;;;5065182;28;40226;-24
2023/06/26 04:20:21;;;;;;;5.30;4.80;;;;;;;;;;5066405;28;43033;-25
2023/06/26 04:22:49;;;;;;;5.43;4.93;;;;;;;;;;5065516;28;41562;-24
2023/06/26 04:25:17;;;;;;;6.30;5.30;;;;;;;;;;5064537;28;43271;-25
2023/06/26 04:27:45;;;;;;;5.57;5.07;;;;;;;;;;5066207;28;43940;-25
2023/06/26 04:30:15;;;;;;;6.07;4.90;;;;;;;;;;5065696;28;40851;-25
2023/06/26 04:32:43;;;;;;;5.53;5.03;;;;;;;;;;5064824;28;42876;-25
2023/06/26 04:35:11;;;;;;;5.60;5.10;;;;;;;;;;5067475;28;43643;-25
2023/06/26 04:37:40;;;;;;;6.15;5.13;;;;;;;;;;5068001;28;40405;-25
2023/06/26 04:40:09;;;;;;;5.63;5.03;;;;;;;;;;5068123;28;43490;-25
2023/06/26 04:42:37;;;;;;;5.00;4.50;;;;;;;;;;5060867;28;43155;-25
2023/06/26 04:45:06;;;;;;;5.63;5.00;;;;;;;;;;5069366;28;42615;-24
2023/06/26 04:47:35;;;;;;;5.30;4.68;;;;;;;;;;5067919;28;43319;-25
2023/06/26 04:50:03;;;;;;;4.60;4.20;;;;;;;;;;5068027;28;40052;-24
2023/06/26 04:52:32;;;;;;;4.63;4.10;;;;;;;;;;5065061;28;42679;-24
2023/06/26 04:55:00;;;;;;;6.10;4.63;;;;;;;;;;5057060;28;43551;-24
2023/06/26 04:57:28;;;;;;;5.15;4.45;;;;;;;;;;5066392;28;39774;-24
2023/06/26 04:59:56;;;;;;;5.28;4.50;;;;;;;;;;5059663;28;42710;-24
2023/06/26 05:02:26;;;;;;;5.70;4.45;;;;;;;;;;5058171;28;41810;-33
2023/06/26 05:04:56;;;;;;;4.95;4.45;;;;;;;;;;5055326;28;41327;-34
2023/06/26 05:07:24;;;;;;;7.57;4.28;;;;;;;;;;5067903;28;42878;-30
2023/06/26 05:09:52;;;;;;;5.85;4.55;;;;;;;;;;5068672;28;40136;-33
2023/06/26 05:12:20;;;;;;;5.28;3.70;;;;;;;;;;5067969;28;42139;-33
2023/06/26 05:14:48;;;;;;;5.20;3.92;;;;;;;;;;5067966;28;43994;-29
2023/06/26 05:17:16;;;;;;;6.70;4.53;;;;;;;;;;5068928;28;40251;-35
2023/06/26 05:19:44;;;;;;;4.93;4.18;;;;;;;;;;5069188;28;44275;-31
2023/06/26 05:22:14;;;;;;;4.47;3.70;;;;;;;;;;5067953;28;44448;-32
2023/06/26 05:24:42;;;;;;;6.28;4.15;;;;;;;;;;5068853;28;42285;-32
2023/06/26 05:27:12;;;;;;;6.82;4.47;;;;;;;;;;5069197;28;42250;-32
2023/06/26 05:29:40;;;;;;;8.10;4.18;;;;;;;;;;5067453;28;40935;-31
2023/06/26 05:32:09;;;;;;;6.28;3.65;;;;;;;;;;5068613;28;44252;-31
2023/06/26 05:34:37;;;;;;;4.97;3.63;;;;;;;;;;5065537;28;43884;-31
2023/06/26 05:37:05;;;;;;;5.88;4.20;;;;;;;;;;5068790;28;40106;-33
2023/06/26 05:39:35;;;;;;;6.75;4.07;;;;;;;;;;5068153;28;42878;-32
2023/06/26 05:42:03;;;;;;;5.20;3.90;;;;;;;;;;5067451;28;44389;-31
2023/06/26 05:44:31;;;;;;;6.28;3.83;;;;;;;;;;5067775;28;40498;-31
2023/06/26 05:46:59;;;;;;;7.82;4.18;;;;;;;;;;5067324;28;42782;-33
2023/06/26 05:49:27;;;;;;;7.50;4.22;;;;;;;;;;5049967;28;33294;-33
2023/06/26 05:51:56;;;;;;;6.40;4.20;;;;;;;;;;5067037;28;44311;-31
2023/06/26 05:54:24;;;;;;;5.65;3.92;;;;;;;;;;5067450;28;43501;-33
2023/06/26 05:56:53;;;;;;;5.90;4.10;;;;;;;;;;5067134;28;40398;-33
2023/06/26 05:59:21;;;;;;;6.47;4.18;;;;;;;;;;5066518;28;43426;-35
2023/06/26 06:01:49;;;;;;;6.18;4.00;;;;;;;;;;5068443;28;43679;-32
2023/06/26 06:04:17;;;;;;;7.30;3.90;;;;;;;;;;5067184;28;41132;-32
2023/06/26 06:06:45;;;;;;;6.68;3.80;;;;;;;;;;5068222;28;42934;-34
2023/06/26 06:09:13;;;;;;;8.93;4.40;;;;;;;;;;5061487;28;43149;-34
2023/06/26 06:11:41;;;;;;;5.63;3.90;;;;;;;;;;5065671;28;42576;-34
2023/06/26 06:14:11;;;;;;;8.50;4.22;;;;;;;;;;5063361;28;43352;-34
2023/06/26 06:16:39;;;;;;;6.72;3.50;;;;;;;;;;5067340;28;40290;-34
2023/06/26 06:19:07;;;;;;;5.18;3.63;;;;;;;;;;5067431;28;42365;-31
2023/06/26 06:21:35;;;;;;;6.60;3.50;;;;;;;;;;5066342;28;43414;-30
2023/06/26 06:24:03;;;;;;;5.97;3.90;;;;;;;;;;5067392;28;40517;-31
2023/06/26 06:26:31;;;;;;;6.18;3.85;;;;;;;;;;5057333;28;42801;-32
2023/06/26 06:28:59;;;;;;;5.05;3.40;;;;;;;;;;5067236;28;43982;-31
2023/06/26 06:31:29;;;;;;;7.88;3.72;;;;;;;;;;5066806;28;40405;-32
2023/06/26 06:33:57;;;;;;;7.60;3.72;;;;;;;;;;5067241;28;43917;-34
2023/06/26 06:36:25;;;;;;;5.28;3.22;;;;;;;;;;5066280;28;40355;-31
2023/06/26 06:38:52;;;;;;;6.68;3.50;;;;;;;;;;5066767;28;43849;-32
2023/06/26 06:41:20;;;;;;;5.68;3.40;;;;;;;;;;5065651;28;43112;-33
2023/06/26 06:43:48;;;;;;;13.55;4.05;;;;;;;;;;5065149;28;40143;-31
2023/06/26 06:46:16;;;;;;;10.07;4.30;;;;;;;;;;5063476;28;42750;-32
2023/06/26 06:48:46;;;;;;;8.68;4.22;;;;;;;;;;5067281;28;43323;-30
2023/06/26 06:51:14;;;;;;;9.65;3.80;;;;;;;;;;5067585;28;40793;-30
2023/06/26 06:53:42;;;;;;;9.30;4.40;;;;;;;;;;5066847;28;41844;-27
2023/06/26 06:56:10;;;;;;;8.32;3.92;;;;;;;;;;5067416;28;40606;-28
2023/06/26 06:58:38;;;;;;;6.63;3.40;;;;;;;;;;5063619;28;42587;-31
2023/06/26 07:01:06;;;;;;;7.03;3.20;;;;;;;;;;5065289;28;43676;-31
2023/06/26 07:03:34;;;;;;;8.60;3.95;;;;;;;;;;5063335;28;41657;-32
2023/06/26 07:06:03;;;;;;;8.02;3.83;;;;;;;;;;5060927;28;42582;-34
2023/06/26 07:08:31;;;;;;;8.68;3.53;;;;;;;;;;5064581;28;43898;-28
2023/06/26 07:10:59;;;;;;;8.50;3.63;;;;;;;;;;5065526;28;40628;-31
2023/06/26 07:13:27;;;;;;;8.73;3.55;;;;;;;;;;5064433;28;43243;-30
2023/06/26 07:15:55;;;;;;;5.80;3.00;;;;;;;;;;5064617;28;42874;-32
2023/06/26 07:18:23;;;;;;;5.50;2.88;;;;;;;;;;5064214;28;42381;-30
2023/06/26 07:20:51;;;;;;;7.68;2.78;;;;;;;;;;5062547;28;42669;-29
2023/06/26 07:23:21;;;;;;;3.60;2.40;;;;;;;;;;5059827;28;40869;-29
2023/06/26 07:25:49;;;;;;;9.40;2.45;;;;;;;;;;5056931;28;42819;-29
2023/06/26 07:28:17;;;;;;;5.75;1.85;;;;;;;;;;5065052;28;43391;-31
2023/06/26 07:30:45;;;;;;;7.18;2.17;;;;;;;;;;5066324;28;40335;-30
2023/06/26 07:33:13;;;;;;;7.68;2.10;;;;;;;;;;5063887;28;42714;-30
2023/06/26 07:35:41;;;;;;;4.10;2.60;;;;;;;;;;5065213;28;43546;-31
2023/06/26 07:38:09;;;;;;;4.22;1.95;;;;;;;;;;5064439;28;40375;-29
2023/06/26 07:40:38;;;;;;;3.83;2.03;;;;;;;;;;5063928;28;43505;-30
2023/06/26 07:43:06;;;;;;;5.72;2.13;;;;;;;;;;5058944;28;40334;-29
2023/06/26 07:45:34;;;;;;;2.63;1.60;;;;;;;;;;5063710;28;42338;-23
2023/06/26 07:48:02;;;;;;;3.50;2.22;;;;;;;;;;5064763;28;43345;-23
2023/06/26 07:50:30;;;;;;;4.28;1.90;;;;;;;;;;5062356;28;39826;-23
2023/06/26 07:52:58;;;;;;;3.78;1.85;;;;;;;;;;5064147;28;43083;-23
2023/06/26 07:55:27;;;;;;;4.68;1.98;;;;;;;;;;5062469;28;43442;-23
2023/06/26 07:57:56;;;;;;;3.78;1.90;;;;;;;;;;5064774;28;40193;-23
2023/06/26 08:00:24;;;;;;;4.45;2.15;;;;;;;;;;5063548;28;43335;-23
2023/06/26 08:02:53;;;;;;;6.32;2.20;;;;;;;;;;5063792;28;41346;-23
2023/06/26 08:05:21;;;;;;;3.30;2.05;;;;;;;;;;5063640;28;43209;-23
2023/06/26 08:07:49;;;;;;;4.03;2.17;;;;;;;;;;5065087;28;44226;-23
2023/06/26 08:10:17;;;;;;;4.75;2.45;;;;;;;;;;5064888;28;41360;-23
2023/06/26 08:12:46;;;;;;;5.68;2.25;;;;;;;;;;5066102;28;42758;-23
2023/06/26 08:15:16;;;;;;;2.60;2.30;;;;;;;;;;5065702;28;42839;-23
2023/06/26 08:17:45;;;;;;;6.07;2.20;;;;;;;;;;5065438;28;42229;-23
2023/06/26 08:20:13;;;;;;;4.10;2.13;;;;;;;;;;5066277;28;43470;-23
2023/06/26 08:22:41;;;;;;;5.30;2.40;;;;;;;;;;5065313;28;40989;-23
2023/06/26 08:25:09;;;;;;;4.70;2.35;;;;;;;;;;5065275;28;43806;-23
2023/06/26 08:27:37;;;;;;;3.10;2.22;;;;;;;;;;5064651;28;43086;-23
2023/06/26 08:30:06;;;;;;;3.58;2.17;;;;;;;;;;5065890;28;40634;-24
2023/06/26 08:32:35;;;;;;;4.75;2.30;;;;;;;;;;5064813;28;43186;-23
2023/06/26 08:35:03;;;;;;;4.10;2.42;;;;;;;;;;5064871;28;44348;-23
2023/06/26 08:37:32;;;;;;;6.82;2.58;;;;;;;;;;5064027;28;41059;-23
2023/06/26 08:40:00;;;;;;;3.28;2.40;;;;;;;;;;5064845;28;42513;-23
2023/06/26 08:42:28;;;;;;;4.70;2.28;;;;;;;;;;5064915;28;43483;-24
2023/06/26 08:44:56;;;;;;;5.50;2.90;;;;;;;;;;5064454;28;42622;-23
2023/06/26 08:47:29;;;;;;;3.55;2.50;;;;;;;;;;5061569;28;43086;-24
2023/06/26 08:50:01;;;;;;;4.00;2.70;;;;;;;;;;5065416;28;40552;-23
2023/06/26 08:52:29;;;;;;;3.85;2.80;;;;;;;;;;5064207;28;44213;-23
2023/06/26 08:54:58;;;;;;;3.78;2.63;;;;;;;;;;5065664;28;44096;-24
2023/06/26 08:57:27;;;;;;;4.38;2.50;;;;;;;;;;5064878;28;40741;-24
2023/06/26 08:59:55;;;;;;;4.72;2.95;;;;;;;;;;5063693;28;42467;-24
2023/06/26 09:02:23;;;;;;;3.35;2.38;;;;;;;;;;5065012;28;44213;-23
2023/06/26 09:04:51;;;;;;;5.75;2.88;;;;;;;;;;5064754;28;40135;-24
2023/06/26 09:07:20;;;;;;;5.80;2.60;;;;;;;;;;5063300;28;43419;-29
2023/06/26 09:09:48;;;;;;;4.22;2.38;;;;;;;;;;5065194;28;40659;-27
2023/06/26 09:12:16;;;;;;;5.03;2.70;;;;;;;;;;5065081;28;42752;-27
2023/06/26 09:14:44;;;;;;;4.20;2.08;;;;;;;;;;5064476;28;43451;-27
2023/06/26 09:17:13;;;;;;;6.43;2.40;;;;;;;;;;5065127;28;40250;-28
2023/06/26 09:19:41;;;;;;;2.85;2.15;;;;;;;;;;5064203;28;43944;-27
2023/06/26 09:22:11;;;;;;;4.05;2.40;;;;;;;;;;5067278;28;43364;-29
2023/06/26 09:24:41;;;;;;;3.75;2.80;;;;;;;;;;5068189;28;40234;-30
2023/06/26 09:27:09;;;;;;;3.33;2.33;;;;;;;;;;5065890;28;41174;-30
2023/06/26 09:29:37;;;;;;;6.40;2.97;;;;;;;;;;5067406;28;40478;-28
2023/06/26 09:32:05;;;;;;;7.10;2.95;;;;;;;;;;5068533;28;42444;-26
2023/06/26 09:34:33;;;;;;;4.47;2.45;;;;;;;;;;5066960;28;43442;-27
2023/06/26 09:37:02;;;;;;;3.15;2.30;;;;;;;;;;5068153;28;41218;-27
2023/06/26 09:39:31;;;;;;;4.07;2.60;;;;;;;;;;5067518;28;43353;-32
2023/06/26 09:42:01;;;;;;;5.18;2.60;;;;;;;;;;5067291;28;44236;-27
2023/06/26 09:44:34;;;;;;;6.10;2.67;;;;;;;;;;5066961;28;40106;-31
2023/06/26 09:47:02;;;;;;;2.70;1.95;;;;;;;;;;5067948;28;42809;-28
2023/06/26 09:49:30;;;;;;;5.30;2.70;;;;;;;;;;5067009;28;43325;-28
2023/06/26 09:51:58;;;;;;;3.97;2.13;;;;;;;;;;5065386;28;42481;-27
2023/06/26 09:54:28;;;;;;;5.20;2.00;;;;;;;;;;5066905;28;43366;-27
2023/06/26 09:56:56;;;;;;;3.72;1.70;;;;;;;;;;5066862;28;41544;-28
2023/06/26 09:59:26;;;;;;;2.95;1.65;;;;;;;;;;5068117;28;43425;-28
2023/06/26 10:01:59;;;;;;;4.72;1.85;;;;;;;;;;5067348;28;43715;-29
2023/06/26 10:04:27;;;;;;;5.32;2.10;;;;;;;;;;5066973;28;40260;-27
2023/06/26 10:06:56;;;;;;;2.80;1.85;;;;;;;;;;5067437;28;42707;-29
2023/06/26 10:09:24;;;;;;;3.72;1.70;;;;;;;;;;5066580;28;43763;-28
2023/06/26 10:11:56;;;;;;;2.92;1.80;;;;;;;;;;5064821;28;42723;-28
2023/06/26 10:14:27;;;;;;;3.95;1.95;;;;;;;;;;5067217;28;44414;-30
2023/06/26 10:16:56;;;;;;;3.78;1.88;;;;;;;;;;5066643;28;40672;-26
2023/06/26 10:19:26;;;;;;;2.63;1.60;;;;;;;;;;5066930;28;42754;-29
2023/06/26 10:21:54;;;;;;;4.15;1.20;;;;;;;;;;5067361;28;44012;-27
2023/06/26 10:24:22;;;;;;;4.13;1.88;;;;;;;;;;5066680;28;40544;-28
2023/06/26 10:26:50;;;;;;;2.67;1.50;;;;;;;;;;5067041;28;43875;-29
2023/06/26 10:29:18;;;;;;;2.88;1.75;;;;;;;;;;5066659;28;44358;-28
2023/06/26 10:31:49;;;;;;;3.58;1.40;;;;;;;;;;5066146;28;40991;-32
2023/06/26 10:34:17;;;;;;;4.45;1.50;;;;;;;;;;5067174;28;43641;-28
2023/06/26 10:36:47;;;;;;;6.97;1.83;;;;;;;;;;5067265;28;40266;-32
2023/06/26 10:39:15;;;;;;;6.38;1.33;;;;;;;;;;5066962;28;44407;-27
2023/06/26 10:41:43;;;;;;;4.50;1.55;;;;;;;;;;5066595;28;44134;-30
2023/06/26 10:44:31;;;;;;;2.25;1.17;;;;;;;;;;5063625;28;40130;-29
2023/06/26 10:47:00;;;;;;;2.78;1.20;;;;;;;;;;5066906;28;43639;-28
2023/06/26 10:49:29;;;;;;;4.57;1.60;;;;;;;;;;5066794;28;43704;-27
2023/06/26 10:51:58;;;;;;;2.63;1.30;;;;;;;;;;5066422;28;40725;-30
2023/06/26 10:54:29;;;;;;;2.40;0.98;;;;;;;;;;5067873;28;20229;-30
2023/06/26 10:56:57;;;;;;;4.10;1.20;;;;;;;;;;5067012;28;39915;-31
2023/06/26 10:59:28;;;;;;;2.75;1.27;;;;;;;;;;5065943;28;43742;-33
2023/06/26 11:01:57;;;;;;;4.97;1.30;;;;;;;;;;5066902;28;44091;-35
2023/06/26 11:04:42;;;;;;;2.15;0.90;;;;;;;;;;5066267;28;40246;-28
2023/06/26 11:07:19;;;;;;;3.97;1.30;;;;;;;;;;5064459;28;43282;-29
2023/06/26 11:09:57;;;;;;;2.63;1.10;;;;;;;;;;5063345;28;42923;-30
2023/06/26 11:12:43;;;;;;;4.10;1.23;;;;;;;;;;5066231;28;42015;-30
2023/06/26 11:15:11;;;;;;;4.20;1.30;;;;;;;;;;5064396;28;42827;-31
2023/06/26 11:17:39;;;;;;;4.60;1.10;;;;;;;;;;5066789;28;43057;-28
2023/06/26 11:20:08;;;;;;;3.72;1.35;;;;;;;;;;5065634;28;43528;-30
2023/06/26 11:22:38;;;;;;;2.10;0.80;;;;;;;;;;5066322;28;43124;-32
2023/06/26 11:25:06;;;;;;;2.08;1.05;;;;;;;;;;5066976;28;39901;-30
2023/06/26 11:27:38;;;;;;;3.63;1.25;;;;;;;;;;5065585;28;42389;-29
2023/06/26 11:30:06;;;;;;;3.65;0.85;;;;;;;;;;5063451;28;44512;-34
2023/06/26 11:32:35;;;;;;;1.45;0.90;;;;;;;;;;5066096;28;39654;-32
2023/06/26 11:35:04;;;;;;;4.85;1.23;;;;;;;;;;5065571;28;42675;-33
2023/06/26 11:37:32;;;;;;;3.55;1.30;;;;;;;;;;5057555;28;43066;-30
2023/06/26 11:40:06;;;;;;;3.78;1.10;;;;;;;;;;5066883;28;40728;-31
2023/06/26 11:42:34;;;;;;;4.20;1.20;;;;;;;;;;5064542;28;43395;-29
2023/06/26 11:45:02;;;;;;;2.22;1.10;;;;;;;;;;5065676;28;39739;-22
2023/06/26 11:47:30;;;;;;;3.67;1.00;;;;;;;;;;5065052;28;42526;-22
2023/06/26 11:49:58;;;;;;;3.38;0.98;;;;;;;;;;5066274;28;43988;-22
2023/06/26 11:52:26;;;;;;;2.25;1.15;;;;;;;;;;5065804;28;40082;-22
2023/06/26 11:54:54;;;;;;;1.52;1.00;;;;;;;;;;5065669;28;43493;-22
2023/06/26 11:57:23;;;;;;;3.53;1.23;;;;;;;;;;5065674;28;44070;-22
2023/06/26 11:59:51;;;;;;;1.65;1.10;;;;;;;;;;5065669;28;40976;-21
2023/06/26 12:02:19;;;;;;;3.78;1.00;;;;;;;;;;5065498;28;43365;-22
2023/06/26 12:04:47;;;;;;;3.25;0.98;;;;;;;;;;5066151;28;40062;-22
2023/06/26 12:07:15;;;;;;;3.65;1.10;;;;;;;;;;5065306;28;43049;-22
2023/06/26 12:09:45;;;;;;;4.60;1.00;;;;;;;;;;5063993;28;42987;-22
2023/06/26 12:12:14;;;;;;;3.28;1.20;;;;;;;;;;5055774;28;40331;-22
2023/06/26 12:14:43;;;;;;;2.00;0.90;;;;;;;;;;5057167;28;42910;-22
2023/06/26 12:17:11;;;;;;;4.57;1.00;;;;;;;;;;5065117;28;43963;-22
2023/06/26 12:19:40;;;;;;;1.52;0.90;;;;;;;;;;5065502;28;41458;-22
2023/06/26 12:22:08;;;;;;;3.25;1.17;;;;;;;;;;5065293;28;42460;-22
2023/06/26 12:24:36;;;;;;;6.20;1.30;;;;;;;;;;5059124;28;41074;-22
2023/06/26 12:27:09;;;;;;;3.22;0.93;;;;;;;;;;5056100;28;43641;-22
2023/06/26 12:29:37;;;;;;;3.65;1.00;;;;;;;;;;5064351;28;44303;-22
2023/06/26 12:32:08;;;;;;;3.35;1.00;;;;;;;;;;5063518;28;40892;-22
2023/06/26 12:34:37;;;;;;;3.17;1.08;;;;;;;;;;5063279;28;42788;-22
2023/06/26 12:37:05;;;;;;;5.05;1.13;;;;;;;;;;5056422;28;44677;-22
2023/06/26 12:39:45;;;;;;;7.18;0.90;;;;;;;;;;5059010;28;40019;-22
2023/06/26 12:42:14;;;;;;;4.03;1.10;;;;;;;;;;5063369;28;43375;-22
2023/06/26 12:44:42;;;;;;;6.50;1.33;;;;;;;;;;5064943;28;45863;-22
2023/06/26 12:47:13;;;;;;;5.60;1.00;;;;;;;;;;5064552;28;42307;-22
2023/06/26 12:49:42;;;;;;;4.20;1.13;;;;;;;;;;5061410;28;44395;-22
2023/06/26 12:52:11;;;;;;;3.00;1.02;;;;;;;;;;5064562;28;41118;-22
2023/06/26 12:54:39;;;;;;;7.05;1.20;;;;;;;;;;5064601;28;42948;-22
2023/06/26 12:57:07;;;;;;;8.70;1.40;;;;;;;;;;5068562;28;43239;-22
2023/06/26 12:59:36;;;;;;;6.70;1.38;;;;;;;;;;5067462;28;40458;-22
2023/06/26 13:02:04;;;;;;;4.97;1.17;;;;;;;;;;5068851;28;42978;-22
2023/06/26 13:04:35;;;;;;;3.15;1.15;;;;;;;;;;5067738;28;44098;-22
2023/06/26 13:07:03;;;;;;;2.78;1.20;;;;;;;;;;5068279;28;40218;-22
2023/06/26 13:09:33;;;;;;;1.70;1.10;;;;;;;;;;5067897;28;43571;-22
2023/06/26 13:12:01;;;;;;;1.67;0.95;;;;;;;;;;5068480;28;40850;-22
2023/06/26 13:14:29;;;;;;;3.90;1.05;;;;;;;;;;5059949;28;42830;-22
2023/06/26 13:16:57;;;;;;;2.25;0.90;;;;;;;;;;5068615;28;43920;-22
2023/06/26 13:19:25;;;;;;;3.33;1.33;;;;;;;;;;5065489;28;39017;-22
2023/06/26 13:21:55;;;;;;;3.67;1.10;;;;;;;;;;5068622;28;42323;-22
2023/06/26 13:24:23;;;;;;;4.20;1.10;;;;;;;;;;5066583;28;44166;-22
2023/06/26 13:26:51;;;;;;;4.65;1.20;;;;;;;;;;5067872;28;40389;-22
2023/06/26 13:29:19;;;;;;;3.08;1.20;;;;;;;;;;5067728;28;42831;-22
2023/06/26 13:31:47;;;;;;;2.70;0.90;;;;;;;;;;5068228;28;39907;-22
2023/06/26 13:34:20;;;;;;;9.70;1.98;;;;;;;;;;5067085;28;42537;-22
2023/06/26 13:36:48;;;;;;;8.57;1.42;;;;;;;;;;5063931;28;43385;-22
2023/06/26 13:39:18;;;;;;;19.30;2.10;;;;;;;;;;5067185;28;40121;-23
2023/06/26 13:41:46;;;;;;;9.13;1.63;;;;;;;;;;5067284;28;42237;-22
2023/06/26 13:44:14;;;;;;;14.27;1.73;;;;;;;;;;5065314;28;43340;-23
2023/06/26 13:47:02;;;;;;;10.82;1.42;;;;;;;;;;5059165;28;40724;-22
2023/06/26 13:49:31;;;;;;;7.90;1.10;;;;;;;;;;5066439;28;42744;-22
2023/06/26 13:51:59;;;;;;;6.93;0.70;;;;;;;;;;5066577;28;43923;-22
2023/06/26 13:54:28;;;;;;;7.75;1.20;;;;;;;;;;5063419;28;43092;-22
2023/06/26 13:56:57;;;;;;;3.10;0.98;;;;;;;;;;5065287;28;43499;-23
2023/06/26 13:59:26;;;;;;;1.23;0.55;;;;;;;;;;5064545;28;40244;-22
2023/06/26 14:01:55;;;;;;;3.35;0.80;;;;;;;;;;5065466;28;42941;-23
2023/06/26 14:04:23;;;;;;;7.40;1.00;;;;;;;;;;5066790;28;42885;-22
2023/06/26 14:06:51;;;;;;;3.78;0.70;;;;;;;;;;5064868;28;41390;-22
2023/06/26 14:09:19;;;;;;;6.72;1.10;;;;;;;;;;5061132;28;42790;-22
2023/06/26 14:11:48;;;;;;;5.80;0.98;;;;;;;;;;5066066;28;44390;-23
2023/06/26 14:14:16;;;;;;;8.32;0.85;;;;;;;;;;5065353;28;40174;-23
2023/06/26 14:16:44;;;;;;;3.40;0.88;;;;;;;;;;5063894;28;43341;-22
2023/06/26 14:19:15;;;;;;;1.63;0.90;;;;;;;;;;5065545;28;40485;-22
2023/06/26 14:21:43;;;;;;;3.83;1.20;;;;;;;;;;5063530;28;42919;-22
2023/06/26 14:24:10;;;;;;;8.63;1.00;;;;;;;;;;5064404;28;43530;-23
2023/06/26 14:26:38;;;;;;;3.72;0.93;;;;;;;;;;5055464;28;40064;-24
2023/06/26 14:29:08;;;;;;;1.70;1.00;;;;;;;;;;5065034;28;43691;-23
2023/06/26 14:31:36;;;;;;;1.23;0.80;;;;;;;;;;5064847;28;43154;-23
2023/06/26 14:34:04;;;;;;;3.08;1.00;;;;;;;;;;5065312;28;39917;-23
2023/06/26 14:36:32;;;;;;;2.10;0.95;;;;;;;;;;5062787;28;43174;-23
2023/06/26 14:39:00;;;;;;;12.93;1.30;;;;;;;;;;5064589;28;40804;-23
2023/06/26 14:41:28;;;;;;;2.92;0.90;;;;;;;;;;5061344;28;42514;-23
2023/06/26 14:43:57;;;;;;;6.55;1.20;;;;;;;;;;5061514;28;44458;-23
2023/06/26 14:46:27;;;;;;;6.22;0.88;;;;;;;;;;5061960;28;42714;-23
2023/06/26 14:48:56;;;;;;;3.38;0.70;;;;;;;;;;5063181;28;43478;-23
2023/06/26 14:51:25;;;;;;;2.22;0.75;;;;;;;;;;5061860;28;43330;-23
2023/06/26 14:53:53;;;;;;;3.90;1.00;;;;;;;;;;5063964;28;40839;-22